createdAt,value
2022-08-08T00:02:03.936Z,17.73
2022-08-08T00:04:59.723Z,17.68
2022-08-08T00:07:56.538Z,17.68
2022-08-08T00:10:52.377Z,17.66
2022-08-08T00:14:16.562Z,17.77
2022-08-08T00:16:43.787Z,17.59
2022-08-08T00:19:55.219Z,17.76
2022-08-08T00:22:34.266Z,17.68
2022-08-08T00:25:16.192Z,17.60
2022-08-08T00:27:43.744Z,17.60
2022-08-08T00:30:15.835Z,17.55
2022-08-08T00:32:53.273Z,17.59
2022-08-08T00:35:21.385Z,17.69
2022-08-08T00:38:07.230Z,17.53
2022-08-08T00:41:09.554Z,17.63
2022-08-08T00:43:58.713Z,17.54
2022-08-08T00:46:57.199Z,17.40
2022-08-08T00:50:02.927Z,17.30
2022-08-08T00:52:54.145Z,17.21
2022-08-08T00:55:53.874Z,17.52
2022-08-08T00:58:32.844Z,17.15
2022-08-08T01:01:10.531Z,17.12
2022-08-08T01:03:59.071Z,17.09
2022-08-08T01:07:23.797Z,17.22
2022-08-08T01:10:18.401Z,17.05
2022-08-08T01:13:04.805Z,17.01
2022-08-08T01:15:54.159Z,16.94
2022-08-08T01:18:57.784Z,16.99
2022-08-08T01:22:09.894Z,16.87
2022-08-08T01:24:50.809Z,16.72
2022-08-08T01:28:02.038Z,16.88
2022-08-08T01:30:53.499Z,16.66
2022-08-08T01:33:54.101Z,16.70
2022-08-08T01:36:56.077Z,16.84
2022-08-08T01:39:43.314Z,16.76
2022-08-08T01:42:36.769Z,16.75
2022-08-08T01:45:10.033Z,16.82
2022-08-08T01:48:27.574Z,16.70
2022-08-08T01:52:29.471Z,16.69
2022-08-08T01:55:45.006Z,16.75
2022-08-08T01:58:11.126Z,16.74
2022-08-08T02:00:57.603Z,16.75
2022-08-08T02:03:56.248Z,16.77
2022-08-08T02:07:04.178Z,16.64
2022-08-08T02:10:29.542Z,16.58
2022-08-08T02:13:53.684Z,16.67
2022-08-08T02:16:37.907Z,16.60
2022-08-08T02:19:57.624Z,16.49
2022-08-08T02:22:54.854Z,16.31
2022-08-08T02:25:43.553Z,16.48
2022-08-08T02:28:43.418Z,16.42
2022-08-08T02:31:59.308Z,16.32
2022-08-08T02:34:09.826Z,16.62
2022-08-08T02:36:54.576Z,16.42
2022-08-08T02:39:58.420Z,16.30
2022-08-08T02:42:47.985Z,16.35
2022-08-08T02:45:57.819Z,16.38
2022-08-08T02:48:50.366Z,16.18
2022-08-08T02:51:30.433Z,16.15
2022-08-08T02:54:31.239Z,16.14
2022-08-08T02:57:21.569Z,16.37
2022-08-08T03:00:31.044Z,16.24
2022-08-08T03:05:00.630Z,16.21
2022-08-08T03:06:35.054Z,16.21
2022-08-08T03:09:33.294Z,16.24
2022-08-08T03:12:36.619Z,16.40
2022-08-08T03:15:57.287Z,16.53
2022-08-08T03:18:45.384Z,16.30
2022-08-08T03:21:14.605Z,16.41
2022-08-08T03:23:57.436Z,16.43
2022-08-08T03:26:42.536Z,16.47
2022-08-08T03:29:21.036Z,16.48
2022-08-08T03:32:29.261Z,16.87
2022-08-08T03:34:58.748Z,17.17
2022-08-08T03:38:53.933Z,17.12
2022-08-08T03:40:30.438Z,17.08
2022-08-08T03:43:17.995Z,17.02
2022-08-08T03:46:06.680Z,17.12
2022-08-08T03:49:56.759Z,17.00
2022-08-08T03:51:47.104Z,16.90
2022-08-08T03:54:40.793Z,16.97
2022-08-08T03:58:09.609Z,17.17
2022-08-08T04:00:11.583Z,17.22
2022-08-08T04:02:55.287Z,17.17
2022-08-08T04:05:28.307Z,17.09
2022-08-08T04:08:01.857Z,17.12
2022-08-08T04:10:32.611Z,17.22
2022-08-08T04:13:17.134Z,17.20
2022-08-08T04:15:54.747Z,17.23
2022-08-08T04:18:41.795Z,17.34
2022-08-08T04:21:10.728Z,17.32
2022-08-08T04:24:05.690Z,17.24
2022-08-08T04:26:27.363Z,17.50
2022-08-08T04:29:06.821Z,17.58
2022-08-08T04:31:58.970Z,17.65
2022-08-08T04:34:22.930Z,17.79
2022-08-08T04:36:55.331Z,18.10
2022-08-08T04:40:04.127Z,18.65
2022-08-08T04:42:11.305Z,18.88
2022-08-08T04:44:42.978Z,19.23
2022-08-08T04:47:16.582Z,19.16
2022-08-08T04:50:01.638Z,18.81
2022-08-08T04:52:35.060Z,19.11
2022-08-08T04:55:05.876Z,19.44
2022-08-08T04:57:34.355Z,19.47
2022-08-08T05:00:04.439Z,19.56
2022-08-08T05:02:31.910Z,19.43
2022-08-08T05:04:59.991Z,19.41
2022-08-08T05:07:35.300Z,20.28
2022-08-08T05:10:06.871Z,20.29
2022-08-08T05:13:00.363Z,20.76
2022-08-08T05:15:25.927Z,20.81
2022-08-08T05:17:58.305Z,20.93
2022-08-08T05:20:25.642Z,21.08
2022-08-08T05:22:54.551Z,21.57
2022-08-08T05:25:27.796Z,21.41
2022-08-08T05:28:08.784Z,22.36
2022-08-08T05:30:38.525Z,22.58
2022-08-08T05:33:14.116Z,21.91
2022-08-08T05:35:43.966Z,21.41
2022-08-08T05:38:31.911Z,21.16
2022-08-08T05:41:07.888Z,21.65
2022-08-08T05:44:03.734Z,21.50
2022-08-08T05:46:27.716Z,21.92
2022-08-08T05:48:55.119Z,22.36
2022-08-08T05:51:26.487Z,21.96
2022-08-08T05:54:26.840Z,22.18
2022-08-08T05:56:47.654Z,22.42
2022-08-08T05:59:59.819Z,22.37
2022-08-08T06:02:43.543Z,22.79
2022-08-08T06:05:33.577Z,21.93
2022-08-08T06:08:09.876Z,22.34
2022-08-08T06:10:48.940Z,22.31
2022-08-08T06:13:22.550Z,22.64
2022-08-08T06:15:55.387Z,22.66
2022-08-08T06:18:41.304Z,23.12
2022-08-08T06:21:11.706Z,23.20
2022-08-08T06:24:03.611Z,23.55
2022-08-08T06:26:45.410Z,23.57
2022-08-08T06:30:00.536Z,23.61
2022-08-08T06:32:31.178Z,24.58
2022-08-08T06:36:00.424Z,25.04
2022-08-08T06:38:00.155Z,25.27
2022-08-08T06:40:36.994Z,25.61
2022-08-08T06:43:10.942Z,25.96
2022-08-08T06:45:48.319Z,25.90
2022-08-08T06:48:17.314Z,25.96
2022-08-08T06:50:45.475Z,25.94
2022-08-08T06:53:20.239Z,25.04
2022-08-08T06:56:01.927Z,25.42
2022-08-08T06:58:33.283Z,25.22
2022-08-08T07:01:24.593Z,25.14
2022-08-08T07:04:37.162Z,25.58
2022-08-08T07:06:54.654Z,25.79
2022-08-08T07:09:41.727Z,25.95
2022-08-08T07:12:22.063Z,25.25
2022-08-08T07:14:57.869Z,25.85
2022-08-08T07:17:40.309Z,26.23
2022-08-08T07:20:19.035Z,26.44
2022-08-08T07:22:56.548Z,25.68
2022-08-08T07:25:31.825Z,25.74
2022-08-08T07:28:08.410Z,26.67
2022-08-08T07:30:39.116Z,27.27
2022-08-08T07:33:11.757Z,28.10
2022-08-08T07:35:47.375Z,27.96
2022-08-08T07:38:21.072Z,28.28
2022-08-08T07:40:59.123Z,28.38
2022-08-08T07:43:38.019Z,28.80
2022-08-08T07:46:24.413Z,28.02
2022-08-08T07:49:00.192Z,27.56
2022-08-08T07:51:44.827Z,27.05
2022-08-08T07:54:41.249Z,27.30
2022-08-08T07:57:37.101Z,27.44
2022-08-08T08:00:16.772Z,27.23
2022-08-08T08:03:13.840Z,26.98
2022-08-08T08:05:53.872Z,26.80
2022-08-08T08:08:52.181Z,27.21
2022-08-08T08:11:33.998Z,28.02
2022-08-08T08:14:17.233Z,28.48
2022-08-08T08:16:48.691Z,29.15
2022-08-08T08:19:19.960Z,28.92
2022-08-08T08:21:58.354Z,29.52
2022-08-08T08:24:35.284Z,29.77
2022-08-08T08:27:03.645Z,29.76
2022-08-08T08:29:32.895Z,29.93
2022-08-08T08:32:05.476Z,30.68
2022-08-08T08:34:34.361Z,29.34
2022-08-08T08:37:08.134Z,29.56
2022-08-08T08:39:59.763Z,29.32
2022-08-08T08:42:35.118Z,28.39
2022-08-08T08:45:22.916Z,29.18
2022-08-08T08:47:58.408Z,28.44
2022-08-08T08:50:35.045Z,29.11
2022-08-08T08:53:54.664Z,29.22
2022-08-08T08:56:02.213Z,29.27
2022-08-08T08:58:43.316Z,29.81
2022-08-08T09:01:21.157Z,29.11
2022-08-08T09:03:55.559Z,29.42
2022-08-08T09:06:33.476Z,29.70
2022-08-08T09:09:26.727Z,29.70
2022-08-08T09:12:09.680Z,29.81
2022-08-08T09:14:42.787Z,27.22
2022-08-08T09:17:18.429Z,27.45
2022-08-08T09:21:58.408Z,27.31
2022-08-08T09:22:36.033Z,26.76
2022-08-08T09:25:06.189Z,27.91
2022-08-08T09:27:41.984Z,28.02
2022-08-08T09:30:26.740Z,27.73
2022-08-08T09:33:13.227Z,27.44
2022-08-08T09:35:49.036Z,27.34
2022-08-08T09:38:52.688Z,27.51
2022-08-08T09:42:14.077Z,27.88
2022-08-08T09:44:50.853Z,28.21
2022-08-08T09:48:02.598Z,27.74
2022-08-08T09:50:14.021Z,28.03
2022-08-08T09:53:00.329Z,28.52
2022-08-08T09:55:31.726Z,28.18
2022-08-08T09:58:27.622Z,27.87
2022-08-08T10:01:14.920Z,28.46
2022-08-08T10:03:57.512Z,27.43
2022-08-08T10:06:30.077Z,27.76
2022-08-08T10:08:59.845Z,28.40
2022-08-08T10:12:27.633Z,28.90
2022-08-08T10:14:28.159Z,28.67
2022-08-08T10:17:56.558Z,28.56
2022-08-08T10:20:01.262Z,28.88
2022-08-08T10:22:35.981Z,28.40
2022-08-08T10:25:05.908Z,27.99
2022-08-08T10:27:43.477Z,28.96
2022-08-08T10:30:16.794Z,28.90
2022-08-08T10:33:00.806Z,29.05
2022-08-08T10:36:19.724Z,29.10
2022-08-08T10:38:18.928Z,29.16
2022-08-08T10:40:51.553Z,29.17
2022-08-08T10:43:20.028Z,28.82
2022-08-08T10:45:56.251Z,28.43
2022-08-08T10:48:56.951Z,28.59
2022-08-08T10:51:24.161Z,28.47
2022-08-08T10:53:57.138Z,28.65
2022-08-08T10:56:32.324Z,28.98
2022-08-08T10:59:02.179Z,28.62
2022-08-08T11:01:33.574Z,28.57
2022-08-08T11:04:02.663Z,28.51
2022-08-08T11:06:36.945Z,28.12
2022-08-08T11:09:19.369Z,27.70
2022-08-08T11:12:04.570Z,28.42
2022-08-08T11:14:35.396Z,29.14
2022-08-08T11:17:03.858Z,29.13
2022-08-08T11:19:34.817Z,29.52
2022-08-08T11:22:04.089Z,28.22
2022-08-08T11:24:35.590Z,28.79
2022-08-08T11:27:10.319Z,28.69
2022-08-08T11:29:51.328Z,29.04
2022-08-08T11:32:29.474Z,28.36
2022-08-08T11:35:23.335Z,29.34
2022-08-08T11:38:34.214Z,29.25
2022-08-08T11:40:39.387Z,28.83
2022-08-08T11:43:08.234Z,28.55
2022-08-08T11:46:06.961Z,29.25
2022-08-08T11:48:31.061Z,29.59
2022-08-08T11:51:00.705Z,29.51
2022-08-08T11:53:55.152Z,29.89
2022-08-08T11:56:34.398Z,30.21
2022-08-08T11:59:12.062Z,29.45
2022-08-08T12:01:39.296Z,29.39
2022-08-08T12:04:09.153Z,29.75
2022-08-08T12:06:39.283Z,30.09
2022-08-08T12:09:08.959Z,28.28
2022-08-08T12:11:41.794Z,28.26
2022-08-08T12:14:11.799Z,28.67
2022-08-08T12:16:49.260Z,29.45
2022-08-08T12:19:16.201Z,29.47
2022-08-08T12:21:59.414Z,29.65
2022-08-08T12:24:43.206Z,29.68
2022-08-08T12:27:19.251Z,29.59
2022-08-08T12:29:59.000Z,29.29
2022-08-08T12:32:26.002Z,28.73
2022-08-08T12:35:04.114Z,28.10
2022-08-08T12:38:00.951Z,28.23
2022-08-08T12:40:57.197Z,29.56
2022-08-08T12:43:32.559Z,30.26
2022-08-08T12:46:03.492Z,30.35
2022-08-08T12:48:37.513Z,29.29
2022-08-08T12:54:26.803Z,29.23
2022-08-08T12:56:54.123Z,29.40
2022-08-08T12:59:36.197Z,29.61
2022-08-08T13:02:23.425Z,29.52
2022-08-08T13:04:57.900Z,29.13
2022-08-08T13:08:03.540Z,29.01
2022-08-08T13:10:36.571Z,29.78
2022-08-08T13:13:35.383Z,28.67
2022-08-08T13:16:37.638Z,28.84
2022-08-08T13:19:12.297Z,28.52
2022-08-08T13:21:53.686Z,29.32
2022-08-08T13:24:40.865Z,28.77
2022-08-08T13:27:14.908Z,28.61
2022-08-08T13:29:51.453Z,28.79
2022-08-08T13:32:28.592Z,29.24
2022-08-08T13:34:59.290Z,29.10
2022-08-08T13:37:52.146Z,28.89
2022-08-08T13:40:17.669Z,28.91
2022-08-08T13:42:54.255Z,28.96
2022-08-08T13:45:24.325Z,28.14
2022-08-08T13:48:03.089Z,28.64
2022-08-08T13:50:48.032Z,28.56
2022-08-08T13:54:00.768Z,28.50
2022-08-08T13:56:41.663Z,28.54
2022-08-08T13:59:32.922Z,28.65
2022-08-08T14:02:05.355Z,28.59
2022-08-08T14:04:35.288Z,28.71
2022-08-08T14:07:04.532Z,27.43
2022-08-08T14:10:05.547Z,28.33
2022-08-08T14:12:30.380Z,28.09
2022-08-08T14:14:57.705Z,28.23
2022-08-08T14:17:57.989Z,28.52
2022-08-08T14:20:14.691Z,28.09
2022-08-08T14:22:43.144Z,28.11
2022-08-08T14:25:15.467Z,28.09
2022-08-08T14:27:59.524Z,28.06
2022-08-08T14:30:34.378Z,28.28
2022-08-08T14:33:01.474Z,28.01
2022-08-08T14:35:35.871Z,28.43
2022-08-08T14:38:09.481Z,28.32
2022-08-08T14:40:53.676Z,28.16
2022-08-08T14:44:02.837Z,27.62
2022-08-08T14:46:30.990Z,27.75
2022-08-08T14:49:20.092Z,28.08
2022-08-08T14:51:53.485Z,26.99
2022-08-08T14:54:28.426Z,27.15
2022-08-08T14:56:56.235Z,28.00
2022-08-08T14:59:44.329Z,27.95
2022-08-08T15:02:10.462Z,26.94
2022-08-08T15:04:42.268Z,27.30
2022-08-08T15:07:22.718Z,27.34
2022-08-08T15:09:52.036Z,27.87
2022-08-08T15:12:27.377Z,27.98
2022-08-08T15:15:01.551Z,28.06
2022-08-08T15:17:33.822Z,27.98
2022-08-08T15:20:04.500Z,28.37
2022-08-08T15:22:31.687Z,28.10
2022-08-08T15:24:58.333Z,27.08
2022-08-08T15:28:03.549Z,27.69
2022-08-08T15:30:14.611Z,28.14
2022-08-08T15:32:43.121Z,27.27
2022-08-08T15:35:10.999Z,27.81
2022-08-08T15:37:39.128Z,28.10
2022-08-08T15:40:11.090Z,27.52
2022-08-08T15:42:44.602Z,28.00
2022-08-08T15:45:14.271Z,28.00
2022-08-08T15:47:41.128Z,27.83
2022-08-08T15:50:47.657Z,27.45
2022-08-08T15:53:17.807Z,27.48
2022-08-08T15:55:44.890Z,27.97
2022-08-08T15:58:13.900Z,28.24
2022-08-08T16:00:40.906Z,27.95
2022-08-08T16:03:17.324Z,27.52
2022-08-08T16:05:53.307Z,27.16
2022-08-08T16:08:28.228Z,27.48
2022-08-08T16:13:02.147Z,27.01
2022-08-08T16:13:45.096Z,27.33
2022-08-08T16:16:17.397Z,27.44
2022-08-08T16:18:56.996Z,27.47
2022-08-08T16:21:30.760Z,27.45
2022-08-08T16:24:02.733Z,27.25
2022-08-08T16:26:34.017Z,27.26
2022-08-08T16:29:09.439Z,27.29
2022-08-08T16:31:44.720Z,27.49
2022-08-08T16:34:21.032Z,27.48
2022-08-08T16:36:51.540Z,27.53
2022-08-08T16:39:59.438Z,27.75
2022-08-08T16:42:07.758Z,27.69
2022-08-08T16:44:47.394Z,27.56
2022-08-08T16:47:40.608Z,27.29
2022-08-08T16:50:15.897Z,26.81
2022-08-08T17:00:26.607Z,26.56
2022-08-08T17:02:53.929Z,26.67
2022-08-08T17:05:20.644Z,26.35
2022-08-08T17:07:51.293Z,26.47
2022-08-08T17:10:19.063Z,26.85
2022-08-08T17:12:52.755Z,26.46
2022-08-08T17:15:22.992Z,26.50
2022-08-08T17:18:01.493Z,26.50
2022-08-08T17:20:32.121Z,26.53
2022-08-08T17:23:16.693Z,26.13
2022-08-08T17:25:52.269Z,26.09
2022-08-08T17:28:19.395Z,26.01
2022-08-08T17:31:01.237Z,26.28
2022-08-08T17:34:36.933Z,25.92
2022-08-08T17:36:29.258Z,25.85
2022-08-08T17:39:05.322Z,25.98
2022-08-08T17:41:48.482Z,25.92
2022-08-08T17:44:16.856Z,25.84
2022-08-08T17:46:47.819Z,26.00
2022-08-08T17:49:24.772Z,25.97
2022-08-08T17:51:53.025Z,25.56
2022-08-08T17:54:22.192Z,25.88
2022-08-08T17:56:49.529Z,25.78
2022-08-08T17:59:23.489Z,26.15
2022-08-08T18:02:00.162Z,26.46
2022-08-08T18:04:32.719Z,25.74
2022-08-08T18:07:01.372Z,25.73
2022-08-08T18:09:31.511Z,25.74
2022-08-08T18:12:11.362Z,25.66
2022-08-08T18:14:40.676Z,25.57
2022-08-08T18:17:17.645Z,25.50
2022-08-08T18:20:43.628Z,25.47
2022-08-08T18:22:51.359Z,25.56
2022-08-08T18:25:18.226Z,25.43
2022-08-08T18:27:45.891Z,25.56
2022-08-08T18:30:13.493Z,25.42
2022-08-08T18:32:42.181Z,25.70
2022-08-08T18:35:15.898Z,25.61
2022-08-08T18:37:48.584Z,25.53
2022-08-08T18:40:15.775Z,25.46
2022-08-08T18:42:45.667Z,25.38
2022-08-08T18:45:45.085Z,25.43
2022-08-08T18:48:07.804Z,25.24
2022-08-08T18:50:39.431Z,25.25
2022-08-08T18:53:06.678Z,25.32
2022-08-08T18:55:34.096Z,25.14
2022-08-08T18:58:01.875Z,24.98
2022-08-08T19:00:28.937Z,24.89
2022-08-08T19:03:04.108Z,24.21
2022-08-08T19:05:37.962Z,24.17
2022-08-08T19:08:25.090Z,23.97
2022-08-08T19:11:01.718Z,23.73
2022-08-08T19:13:53.561Z,23.85
2022-08-08T19:16:18.504Z,23.61
2022-08-08T19:18:48.571Z,23.53
2022-08-08T19:21:29.417Z,23.43
2022-08-08T19:23:58.234Z,23.41
2022-08-08T19:26:29.720Z,23.24
2022-08-08T19:28:59.040Z,23.05
2022-08-08T19:31:31.750Z,22.99
2022-08-08T19:34:30.333Z,23.02
2022-08-08T19:36:55.285Z,22.98
2022-08-08T19:39:25.200Z,22.96
2022-08-08T19:41:52.067Z,22.77
2022-08-08T19:44:42.538Z,22.78
2022-08-08T19:47:06.533Z,22.87
2022-08-08T19:49:37.628Z,22.58
2022-08-08T19:52:06.505Z,22.51
2022-08-08T19:54:33.886Z,22.46
2022-08-08T19:57:04.276Z,22.55
2022-08-08T19:59:35.678Z,22.36
2022-08-08T20:02:04.186Z,22.47
2022-08-08T20:04:33.149Z,22.51
2022-08-08T20:08:26.687Z,22.45
2022-08-08T20:09:55.741Z,22.29
2022-08-08T20:12:32.634Z,22.27
2022-08-08T20:15:14.715Z,21.98
2022-08-08T20:17:45.798Z,21.96
2022-08-08T20:20:16.023Z,21.92
2022-08-08T20:22:46.777Z,21.95
2022-08-08T20:25:20.296Z,21.91
2022-08-08T20:27:50.225Z,21.82
2022-08-08T20:30:53.775Z,21.77
2022-08-08T20:33:20.039Z,21.88
2022-08-08T20:35:57.965Z,21.65
2022-08-08T20:38:32.144Z,21.64
2022-08-08T20:40:59.343Z,21.53
2022-08-08T20:43:43.888Z,21.57
2022-08-08T20:46:12.833Z,21.32
2022-08-08T20:48:39.463Z,21.37
2022-08-08T20:51:08.793Z,21.40
2022-08-08T20:53:59.232Z,21.41
2022-08-08T20:56:34.669Z,21.59
2022-08-08T20:59:06.063Z,21.08
2022-08-08T21:01:44.307Z,21.29
2022-08-08T21:04:20.721Z,21.03
2022-08-08T21:06:53.328Z,21.08
2022-08-08T21:09:21.540Z,21.05
2022-08-08T21:11:50.875Z,20.94
2022-08-08T21:14:30.419Z,20.95
2022-08-08T21:17:00.775Z,20.98
2022-08-08T21:19:44.394Z,20.99
2022-08-08T21:22:16.105Z,21.31
2022-08-08T21:24:52.474Z,21.04
2022-08-08T21:28:05.427Z,21.01
2022-08-08T21:30:18.610Z,21.04
2022-08-08T21:32:51.924Z,20.99
2022-08-08T21:36:14.585Z,21.16
2022-08-08T21:38:16.152Z,21.04
2022-08-08T21:40:55.947Z,20.97
2022-08-08T21:43:34.361Z,20.93
2022-08-08T21:48:05.751Z,21.01
2022-08-08T21:48:53.236Z,20.77
2022-08-08T21:54:17.368Z,20.68
2022-08-08T21:54:33.839Z,20.73
2022-08-08T21:56:56.586Z,20.72
2022-08-08T21:59:23.309Z,20.56
2022-08-08T22:01:52.270Z,20.42
2022-08-08T22:04:24.748Z,20.85
2022-08-08T22:06:52.827Z,20.81
2022-08-08T22:09:19.986Z,20.92
2022-08-08T22:12:04.551Z,20.77
2022-08-08T22:14:36.615Z,21.13
2022-08-08T22:17:04.048Z,20.77
2022-08-08T22:20:11.174Z,20.66
2022-08-08T22:22:17.954Z,20.67
2022-08-08T22:24:48.149Z,20.82
2022-08-08T22:27:15.127Z,20.75
2022-08-08T22:29:59.151Z,20.77
2022-08-08T22:32:29.364Z,20.50
2022-08-08T22:34:56.359Z,20.57
2022-08-08T22:37:49.340Z,20.36
2022-08-08T22:40:12.037Z,20.51
2022-08-08T22:42:47.264Z,20.36
2022-08-08T22:45:15.400Z,20.26
2022-08-08T22:47:46.965Z,20.19
2022-08-08T22:50:27.240Z,20.01
2022-08-08T22:54:31.460Z,20.08
2022-08-08T22:56:01.574Z,19.97
2022-08-08T22:58:31.200Z,19.98
2022-08-08T23:01:00.661Z,19.82
2022-08-08T23:03:53.879Z,19.67
2022-08-08T23:06:17.394Z,19.72
2022-08-08T23:08:55.484Z,19.70
2022-08-08T23:11:30.823Z,19.72
2022-08-08T23:14:16.086Z,19.58
2022-08-08T23:16:44.222Z,19.83
2022-08-08T23:19:15.547Z,19.71
2022-08-08T23:21:42.851Z,19.44
2022-08-08T23:24:12.702Z,19.43
2022-08-08T23:26:55.345Z,19.48
2022-08-08T23:29:25.435Z,19.23
2022-08-08T23:31:52.938Z,19.29
2022-08-08T23:34:20.673Z,19.35
2022-08-08T23:36:48.557Z,19.25
2022-08-08T23:39:15.593Z,19.33
2022-08-08T23:41:49.313Z,19.26
2022-08-08T23:44:17.366Z,19.40
2022-08-08T23:49:01.451Z,19.26
2022-08-08T23:49:33.765Z,19.37
2022-08-08T23:52:04.691Z,19.17
2022-08-08T23:54:42.201Z,19.22
2022-08-08T23:57:27.578Z,19.07
